createdAt,value
2017-07-22T00:00:45.049Z,62.90
2017-07-22T00:03:12.621Z,63.00
2017-07-22T00:05:40.398Z,63.20
2017-07-22T00:10:49.892Z,63.40
2017-07-22T00:13:24.319Z,63.50
2017-07-22T00:15:52.719Z,63.70
2017-07-22T00:18:25.737Z,64.10
2017-07-22T00:20:53.266Z,64.20
2017-07-22T00:23:20.770Z,64.10
2017-07-22T00:25:49.224Z,64.30
2017-07-22T00:28:16.753Z,64.30
2017-07-22T00:30:44.223Z,64.30
2017-07-22T00:33:23.160Z,64.70
2017-07-22T00:35:50.667Z,64.90
2017-07-22T00:38:18.440Z,65.30
2017-07-22T00:40:46.044Z,65.40
2017-07-22T00:43:13.768Z,65.50
2017-07-22T00:45:41.472Z,65.50
2017-07-22T00:48:09.903Z,65.80
2017-07-22T00:50:40.538Z,65.80
2017-07-22T00:53:08.721Z,65.90
2017-07-22T00:55:36.374Z,66.00
2017-07-22T00:58:04.433Z,65.80
2017-07-22T01:00:31.903Z,66.10
2017-07-22T01:02:59.355Z,66.10
2017-07-22T01:05:27.556Z,66.20
2017-07-22T01:07:55.220Z,66.40
2017-07-22T01:10:22.731Z,66.80
2017-07-22T01:12:50.651Z,66.80
2017-07-22T01:15:18.231Z,67.10
2017-07-22T01:17:45.737Z,68.20
2017-07-22T01:20:13.232Z,67.60
2017-07-22T01:22:40.716Z,67.70
2017-07-22T01:25:08.223Z,67.90
2017-07-22T01:27:35.742Z,67.90
2017-07-22T01:30:03.252Z,67.90
2017-07-22T01:32:32.085Z,68.30
2017-07-22T01:34:59.596Z,68.50
2017-07-22T01:37:27.174Z,68.50
2017-07-22T01:39:54.795Z,68.40
2017-07-22T01:42:22.294Z,68.60
2017-07-22T01:44:49.827Z,68.30
2017-07-22T01:47:17.280Z,67.90
2017-07-22T01:49:44.884Z,68.10
2017-07-22T01:52:12.338Z,70.70
2017-07-22T01:54:39.828Z,72.80
2017-07-22T01:57:07.420Z,75.00
2017-07-22T01:59:34.967Z,78.10
2017-07-22T02:02:02.455Z,80.50
2017-07-22T02:04:30.674Z,83.70
2017-07-22T02:06:58.186Z,83.70
2017-07-22T02:09:25.667Z,83.70
2017-07-22T02:11:53.143Z,84.60
2017-07-22T02:14:20.641Z,84.60
2017-07-22T02:16:48.077Z,85.90
2017-07-22T02:19:15.569Z,85.80
2017-07-22T02:21:43.099Z,86.20
2017-07-22T02:24:10.620Z,87.10
2017-07-22T02:26:38.054Z,86.20
2017-07-22T02:29:06.342Z,86.90
2017-07-22T02:31:33.845Z,86.90
2017-07-22T02:34:01.286Z,87.90
2017-07-22T02:36:28.791Z,87.40
2017-07-22T02:38:56.259Z,87.50
2017-07-22T02:41:23.873Z,88.10
2017-07-22T02:43:51.406Z,87.20
2017-07-22T02:46:18.859Z,86.90
2017-07-22T02:48:46.327Z,86.70
2017-07-22T02:51:13.851Z,86.80
2017-07-22T02:53:41.306Z,87.40
2017-07-22T02:56:10.881Z,89.10
2017-07-22T02:58:38.387Z,86.90
2017-07-22T03:01:05.875Z,87.00
2017-07-22T03:03:33.383Z,87.70
2017-07-22T03:06:01.977Z,87.50
2017-07-22T03:08:29.541Z,88.00
2017-07-22T03:10:57.061Z,88.50
2017-07-22T03:13:24.517Z,88.90
2017-07-22T03:15:52.074Z,89.50
2017-07-22T03:18:20.760Z,90.10
2017-07-22T03:20:48.263Z,90.10
2017-07-22T03:23:15.716Z,90.20
2017-07-22T03:25:43.276Z,90.40
2017-07-22T03:28:10.739Z,90.40
2017-07-22T03:30:39.012Z,90.70
2017-07-22T03:33:06.527Z,90.70
2017-07-22T03:35:34.001Z,90.70
2017-07-22T03:38:01.504Z,90.90
2017-07-22T03:40:29.058Z,91.00
2017-07-22T03:42:56.579Z,90.90
2017-07-22T03:45:24.071Z,91.10
2017-07-22T03:47:51.572Z,90.90
2017-07-22T03:50:19.056Z,90.80
2017-07-22T03:52:46.696Z,90.80
2017-07-22T03:55:14.182Z,90.60
2017-07-22T03:57:41.760Z,90.50
2017-07-22T04:00:10.027Z,91.00
2017-07-22T04:02:38.300Z,90.70
2017-07-22T04:05:05.738Z,90.80
2017-07-22T04:07:33.251Z,90.80
2017-07-22T04:10:00.678Z,90.80
2017-07-22T04:12:28.938Z,90.80
2017-07-22T04:14:56.402Z,90.80
2017-07-22T04:17:23.934Z,90.80
2017-07-22T04:19:51.732Z,90.60
2017-07-22T04:22:19.975Z,90.60
2017-07-22T04:24:47.443Z,90.60
2017-07-22T04:27:14.971Z,90.80
2017-07-22T04:29:42.453Z,90.70
2017-07-22T04:32:09.906Z,91.00
2017-07-22T04:34:37.445Z,90.80
2017-07-22T04:37:04.934Z,90.70
2017-07-22T04:39:32.595Z,90.90
2017-07-22T04:42:00.140Z,90.90
2017-07-22T04:44:27.637Z,91.00
2017-07-22T04:46:55.858Z,91.10
2017-07-22T04:49:24.131Z,91.10
2017-07-22T04:51:51.636Z,91.10
2017-07-22T04:54:19.892Z,91.20
2017-07-22T04:56:47.360Z,91.10
2017-07-22T04:59:14.853Z,91.10
2017-07-22T05:01:42.695Z,91.30
2017-07-22T05:04:10.247Z,91.10
2017-07-22T05:06:37.692Z,91.10
2017-07-22T05:09:06.022Z,91.30
2017-07-22T05:11:33.539Z,90.80
2017-07-22T05:14:01.012Z,91.00
2017-07-22T05:16:28.555Z,90.80
2017-07-22T05:18:56.050Z,90.60
2017-07-22T05:21:23.647Z,90.50
2017-07-22T05:23:51.915Z,90.30
2017-07-22T05:26:19.403Z,90.30
2017-07-22T05:28:47.031Z,90.20
2017-07-22T05:31:16.038Z,90.30
2017-07-22T05:33:43.573Z,90.20
2017-07-22T05:36:11.183Z,90.20
2017-07-22T05:38:39.581Z,89.60
2017-07-22T05:41:07.787Z,88.70
2017-07-22T05:43:35.823Z,88.60
2017-07-22T05:46:03.267Z,88.10
2017-07-22T05:48:31.533Z,87.20
2017-07-22T05:50:59.936Z,86.50
2017-07-22T05:53:27.529Z,86.80
2017-07-22T05:55:56.240Z,86.00
2017-07-22T05:58:23.750Z,86.60
2017-07-22T06:00:51.236Z,86.70
2017-07-22T06:03:19.419Z,85.70
2017-07-22T06:05:48.812Z,85.50
2017-07-22T06:08:16.324Z,84.60
2017-07-22T06:10:43.880Z,83.30
2017-07-22T06:13:13.007Z,79.50
2017-07-22T06:15:41.254Z,71.70
2017-07-22T06:18:09.258Z,71.60
2017-07-22T06:20:37.480Z,65.90
2017-07-22T06:23:04.928Z,60.90
2017-07-22T06:25:32.562Z,56.60
2017-07-22T06:28:00.135Z,53.50
2017-07-22T06:30:27.646Z,50.40
2017-07-22T06:32:55.192Z,48.40
2017-07-22T06:35:22.731Z,46.40
2017-07-22T06:37:50.238Z,44.20
2017-07-22T06:40:19.709Z,44.00
2017-07-22T06:42:48.108Z,45.50
2017-07-22T06:45:15.586Z,45.50
2017-07-22T06:47:43.104Z,47.00
2017-07-22T06:50:10.580Z,49.40
2017-07-22T06:52:39.063Z,48.40
2017-07-22T06:55:08.110Z,46.50
2017-07-22T06:57:35.700Z,46.10
2017-07-22T07:00:04.378Z,45.30
2017-07-22T07:02:34.046Z,43.40
2017-07-22T07:05:02.184Z,41.10
2017-07-22T07:07:29.841Z,40.80
2017-07-22T07:09:58.527Z,37.90
2017-07-22T07:12:26.068Z,38.30
2017-07-22T07:14:53.615Z,36.30
2017-07-22T07:17:22.542Z,36.70
2017-07-22T07:19:54.045Z,35.40
2017-07-22T07:22:21.514Z,35.90
2017-07-22T07:24:49.480Z,34.70
2017-07-22T07:27:17.216Z,35.80
2017-07-22T07:29:44.926Z,32.80
2017-07-22T07:32:13.366Z,32.70
2017-07-22T07:34:41.080Z,34.50
2017-07-22T07:37:08.616Z,35.00
2017-07-22T07:39:36.067Z,34.40
2017-07-22T07:42:04.447Z,33.70
2017-07-22T07:44:36.609Z,35.40
2017-07-22T07:47:04.836Z,34.80
2017-07-22T07:49:44.486Z,37.30
2017-07-22T07:54:50.065Z,35.60
2017-07-22T07:57:19.867Z,36.70
2017-07-22T07:59:48.096Z,35.40
2017-07-22T08:02:16.422Z,35.40
2017-07-22T08:04:47.449Z,33.80
2017-07-22T08:07:19.979Z,35.60
2017-07-22T08:09:47.628Z,35.50
2017-07-22T08:12:15.931Z,34.80
2017-07-22T08:14:43.496Z,33.80
2017-07-22T08:17:11.008Z,31.70
2017-07-22T08:19:38.532Z,30.30
2017-07-22T08:22:06.621Z,30.30
2017-07-22T08:24:37.063Z,31.00
2017-07-22T08:27:07.203Z,30.90
2017-07-22T08:29:38.396Z,29.90
2017-07-22T08:32:06.022Z,30.90
2017-07-22T08:34:33.541Z,31.40
2017-07-22T08:37:02.104Z,32.80
2017-07-22T08:39:29.633Z,32.80
2017-07-22T08:41:57.179Z,32.10
2017-07-22T08:44:24.734Z,29.70
2017-07-22T08:46:52.291Z,30.00
2017-07-22T08:49:19.841Z,29.10
2017-07-22T08:51:47.327Z,30.00
2017-07-22T08:54:15.050Z,29.40
2017-07-22T08:56:42.909Z,27.90
2017-07-22T08:59:10.471Z,27.40
2017-07-22T09:01:41.674Z,29.40
2017-07-22T09:04:12.226Z,30.00
2017-07-22T09:06:41.658Z,34.10
2017-07-22T09:09:09.413Z,33.50
2017-07-22T09:11:40.807Z,34.40
2017-07-22T09:14:08.403Z,34.40
2017-07-22T09:16:36.134Z,36.60
2017-07-22T09:19:03.689Z,37.70
2017-07-22T09:21:31.954Z,38.00
2017-07-22T09:23:59.599Z,36.70
2017-07-22T09:26:27.336Z,34.50
2017-07-22T09:28:55.449Z,34.10
2017-07-22T09:31:22.953Z,31.60
2017-07-22T09:33:52.072Z,29.70
2017-07-22T09:36:20.415Z,27.40
2017-07-22T09:38:48.651Z,25.60
2017-07-22T09:41:17.016Z,27.30
2017-07-22T09:43:44.715Z,27.20
2017-07-22T09:46:12.269Z,27.10
2017-07-22T09:48:39.837Z,26.10
2017-07-22T09:51:07.937Z,26.00
2017-07-22T09:53:35.499Z,26.80
2017-07-22T09:56:04.436Z,27.80
2017-07-22T09:58:32.096Z,26.50
2017-07-22T10:01:00.621Z,26.50
2017-07-22T10:03:28.331Z,26.00
2017-07-22T10:06:01.852Z,26.30
2017-07-22T10:08:31.356Z,26.30
2017-07-22T10:10:58.962Z,26.40
2017-07-22T10:13:28.213Z,24.80
2017-07-22T10:15:57.480Z,26.30
2017-07-22T10:18:36.008Z,26.50
2017-07-22T10:23:50.880Z,26.40
2017-07-22T10:26:30.192Z,26.80
2017-07-22T10:28:59.319Z,25.90
2017-07-22T10:31:26.821Z,26.60
2017-07-22T10:33:54.382Z,24.40
2017-07-22T10:36:21.965Z,25.70
2017-07-22T10:38:50.492Z,25.50
2017-07-22T10:41:18.068Z,26.40
2017-07-22T10:43:46.507Z,25.80
2017-07-22T10:46:14.755Z,25.90
2017-07-22T10:48:42.311Z,26.00
2017-07-22T10:51:10.880Z,25.50
2017-07-22T10:53:38.343Z,25.40
2017-07-22T10:56:05.874Z,25.00
2017-07-22T10:58:33.314Z,25.10
2017-07-22T11:01:01.625Z,25.10
2017-07-22T11:03:29.223Z,24.90
2017-07-22T11:05:57.646Z,24.30
2017-07-22T11:08:25.211Z,24.30
2017-07-22T11:10:52.815Z,24.70
2017-07-22T11:13:20.310Z,26.70
2017-07-22T11:15:47.782Z,27.30
2017-07-22T11:18:15.369Z,28.40
2017-07-22T11:20:42.893Z,29.10
2017-07-22T11:23:11.352Z,31.20
2017-07-22T11:25:39.822Z,32.20
2017-07-22T11:28:11.439Z,32.20
2017-07-22T11:30:39.984Z,33.00
2017-07-22T11:33:07.546Z,32.90
2017-07-22T11:35:35.131Z,34.30
2017-07-22T11:38:02.642Z,33.50
2017-07-22T11:40:30.219Z,33.90
2017-07-22T11:42:57.700Z,34.00
2017-07-22T11:45:25.496Z,35.00
2017-07-22T11:47:54.915Z,35.20
2017-07-22T11:50:22.525Z,35.90
2017-07-22T11:52:50.119Z,37.20
2017-07-22T11:55:18.465Z,36.80
2017-07-22T11:57:46.765Z,37.60
2017-07-22T12:00:14.319Z,37.90
2017-07-22T12:02:42.031Z,37.60
2017-07-22T12:05:09.540Z,37.10
2017-07-22T12:07:37.063Z,37.80
2017-07-22T12:10:04.552Z,38.30
2017-07-22T12:12:32.675Z,38.00
2017-07-22T12:15:01.159Z,38.70
2017-07-22T12:17:29.581Z,38.10
2017-07-22T12:19:58.063Z,38.50
2017-07-22T12:22:25.576Z,38.10
2017-07-22T12:24:54.084Z,39.30
2017-07-22T12:27:21.839Z,39.30
2017-07-22T12:29:50.106Z,39.30
2017-07-22T12:32:18.422Z,39.80
2017-07-22T12:34:47.238Z,40.70
2017-07-22T12:37:14.777Z,40.40
2017-07-22T12:39:43.523Z,41.00
2017-07-22T12:42:11.468Z,40.60
2017-07-22T12:44:40.320Z,40.90
2017-07-22T12:47:09.778Z,40.60
2017-07-22T12:49:37.339Z,40.00
2017-07-22T12:52:05.739Z,40.00
2017-07-22T12:54:35.712Z,39.30
2017-07-22T12:57:04.133Z,40.00
2017-07-22T12:59:32.102Z,40.40
2017-07-22T13:01:59.714Z,40.40
2017-07-22T13:04:27.173Z,40.30
2017-07-22T13:06:54.739Z,41.30
2017-07-22T13:09:22.310Z,41.10
2017-07-22T13:11:50.911Z,40.40
2017-07-22T13:14:18.475Z,40.40
2017-07-22T13:16:47.215Z,41.10
2017-07-22T13:19:14.787Z,41.80
2017-07-22T13:21:42.443Z,42.60
2017-07-22T13:24:10.047Z,42.90
2017-07-22T13:26:38.401Z,42.70
2017-07-22T13:29:06.836Z,42.60
2017-07-22T13:31:35.426Z,42.80
2017-07-22T13:34:03.011Z,42.70
2017-07-22T13:36:30.593Z,43.20
2017-07-22T13:38:58.916Z,44.00
2017-07-22T13:41:26.853Z,43.40
2017-07-22T13:43:54.391Z,42.70
2017-07-22T13:46:21.926Z,42.90
2017-07-22T13:48:49.482Z,43.40
2017-07-22T13:51:18.117Z,44.90
2017-07-22T13:53:45.742Z,44.30
2017-07-22T13:56:13.988Z,43.90
2017-07-22T13:58:41.682Z,44.30
2017-07-22T14:01:09.244Z,43.80
2017-07-22T14:03:37.004Z,43.30
2017-07-22T14:06:04.655Z,42.40
2017-07-22T14:08:32.118Z,43.00
2017-07-22T14:10:59.569Z,42.80
2017-07-22T14:13:27.425Z,41.80
2017-07-22T14:15:54.920Z,41.60
2017-07-22T14:18:23.430Z,42.20
2017-07-22T14:20:50.912Z,42.20
2017-07-22T14:23:18.501Z,42.00
2017-07-22T14:25:45.951Z,41.70
2017-07-22T14:28:13.438Z,42.70
2017-07-22T14:30:41.074Z,42.40
2017-07-22T14:33:08.635Z,41.80
2017-07-22T14:35:36.107Z,43.10
2017-07-22T14:38:04.585Z,42.20
2017-07-22T14:40:32.827Z,41.80
2017-07-22T14:43:00.435Z,41.80
2017-07-22T14:45:28.978Z,42.20
2017-07-22T14:47:56.517Z,42.20
2017-07-22T14:50:24.222Z,42.10
2017-07-22T14:52:51.727Z,42.10
2017-07-22T14:55:19.291Z,41.50
2017-07-22T14:57:47.169Z,41.10
2017-07-22T15:00:15.860Z,41.10
2017-07-22T15:02:43.314Z,39.50
2017-07-22T15:05:10.947Z,40.60
2017-07-22T15:07:38.393Z,40.90
2017-07-22T15:10:06.596Z,41.80
2017-07-22T15:12:34.121Z,41.90
2017-07-22T15:15:01.704Z,40.70
2017-07-22T15:17:29.216Z,41.80
2017-07-22T15:19:56.704Z,42.70
2017-07-22T15:22:24.171Z,43.10
2017-07-22T15:24:51.693Z,43.60
2017-07-22T15:27:19.140Z,43.80
2017-07-22T15:29:46.913Z,45.00
2017-07-22T15:32:14.998Z,45.10
2017-07-22T15:34:42.599Z,45.30
2017-07-22T15:37:10.198Z,46.10
2017-07-22T15:39:37.824Z,46.20
2017-07-22T15:42:05.422Z,45.90
2017-07-22T15:44:32.973Z,45.70
2017-07-22T15:47:00.571Z,45.40
2017-07-22T15:49:29.006Z,48.20
2017-07-22T15:51:56.473Z,50.10
2017-07-22T15:54:24.079Z,51.50
2017-07-22T15:56:51.604Z,52.50
2017-07-22T15:59:19.665Z,53.70
2017-07-22T16:01:47.279Z,54.60
2017-07-22T16:04:14.813Z,55.80
2017-07-22T16:06:43.103Z,56.90
2017-07-22T16:09:10.567Z,56.90
2017-07-22T16:11:38.076Z,57.00
2017-07-22T16:14:05.769Z,56.50
2017-07-22T16:16:33.229Z,56.90
2017-07-22T16:19:01.478Z,57.60
2017-07-22T16:21:28.975Z,57.60
2017-07-22T16:23:56.504Z,58.10
2017-07-22T16:26:24.828Z,57.40
2017-07-22T16:28:52.367Z,57.30
2017-07-22T16:31:19.820Z,56.90
2017-07-22T16:33:48.391Z,56.80
2017-07-22T16:36:16.600Z,56.80
2017-07-22T16:38:44.114Z,56.30
2017-07-22T16:41:11.635Z,56.60
2017-07-22T16:43:39.124Z,55.60
2017-07-22T16:46:06.580Z,54.30
2017-07-22T16:48:35.012Z,54.50
2017-07-22T16:51:02.552Z,54.50
2017-07-22T16:53:30.205Z,54.40
2017-07-22T16:55:57.683Z,52.60
2017-07-22T16:58:25.148Z,54.10
2017-07-22T17:00:52.605Z,53.30
2017-07-22T17:03:20.068Z,52.80
2017-07-22T17:05:47.556Z,51.70
2017-07-22T17:08:15.069Z,51.30
2017-07-22T17:10:42.631Z,51.80
2017-07-22T17:13:10.104Z,51.40
2017-07-22T17:15:37.660Z,51.60
2017-07-22T17:18:05.996Z,51.10
2017-07-22T17:20:33.665Z,51.10
2017-07-22T17:23:01.232Z,51.20
2017-07-22T17:25:28.773Z,51.50
2017-07-22T17:27:56.285Z,51.70
2017-07-22T17:30:23.946Z,51.10
2017-07-22T17:32:53.024Z,51.20
2017-07-22T17:35:20.518Z,51.50
2017-07-22T17:37:48.333Z,50.90
2017-07-22T17:40:16.728Z,51.20
2017-07-22T17:42:44.376Z,51.20
2017-07-22T17:45:11.810Z,51.30
2017-07-22T17:47:39.307Z,51.30
2017-07-22T17:50:06.753Z,51.30
2017-07-22T17:52:34.312Z,52.20
2017-07-22T17:55:01.914Z,52.00
2017-07-22T17:57:30.367Z,51.70
2017-07-22T17:59:57.876Z,51.60
2017-07-22T18:02:26.313Z,52.50
2017-07-22T18:04:54.304Z,51.70
2017-07-22T18:07:22.627Z,52.10
2017-07-22T18:09:50.242Z,52.10
2017-07-22T18:12:17.850Z,52.40
2017-07-22T18:14:45.521Z,52.10
2017-07-22T18:17:13.701Z,52.30
2017-07-22T18:19:41.226Z,51.90
2017-07-22T18:22:08.655Z,52.20
2017-07-22T18:24:36.151Z,52.40
2017-07-22T18:27:03.731Z,52.90
2017-07-22T18:29:31.367Z,52.60
2017-07-22T18:31:58.865Z,52.40
2017-07-22T18:34:26.418Z,52.30
2017-07-22T18:36:54.362Z,52.10
2017-07-22T18:39:21.893Z,52.10
2017-07-22T18:41:49.470Z,52.10
2017-07-22T18:44:16.976Z,52.20
2017-07-22T18:46:44.474Z,52.40
2017-07-22T18:49:11.958Z,52.30
2017-07-22T18:51:39.426Z,52.90
2017-07-22T18:54:06.975Z,53.20
2017-07-22T18:56:34.603Z,53.70
2017-07-22T18:59:02.147Z,54.00
2017-07-22T19:01:31.120Z,53.70
2017-07-22T19:03:58.789Z,53.70
2017-07-22T19:06:27.416Z,50.50
2017-07-22T19:08:55.359Z,50.40
2017-07-22T19:11:23.842Z,49.90
2017-07-22T19:13:51.310Z,49.90
2017-07-22T19:16:19.519Z,51.60
2017-07-22T19:18:47.038Z,51.60
2017-07-22T19:21:14.537Z,52.50
2017-07-22T19:23:42.035Z,52.90
2017-07-22T19:26:09.578Z,53.70
2017-07-22T19:28:37.326Z,54.60
2017-07-22T19:31:04.852Z,55.30
2017-07-22T19:33:32.318Z,55.60
2017-07-22T19:35:59.778Z,55.30
2017-07-22T19:38:27.231Z,55.50
2017-07-22T19:40:54.700Z,56.10
2017-07-22T19:43:22.125Z,56.80
2017-07-22T19:45:49.736Z,57.10
2017-07-22T19:48:17.544Z,57.30
2017-07-22T19:50:45.140Z,57.20
2017-07-22T19:53:12.785Z,57.60
2017-07-22T19:55:40.335Z,57.50
2017-07-22T19:58:07.915Z,57.80
2017-07-22T20:00:35.355Z,57.60
2017-07-22T20:03:02.850Z,57.30
2017-07-22T20:05:30.316Z,56.60
2017-07-22T20:07:57.883Z,56.30
2017-07-22T20:10:25.625Z,56.40
2017-07-22T20:12:53.114Z,56.40
2017-07-22T20:15:20.599Z,56.40
2017-07-22T20:17:48.115Z,56.50
2017-07-22T20:20:16.667Z,56.50
2017-07-22T20:22:44.363Z,55.80
2017-07-22T20:25:12.010Z,56.10
2017-07-22T20:27:39.523Z,55.90
2017-07-22T20:30:07.196Z,56.30
2017-07-22T20:32:34.742Z,56.50
2017-07-22T20:35:03.050Z,56.40
2017-07-22T20:37:31.119Z,56.40
2017-07-22T20:39:58.599Z,57.00
2017-07-22T20:42:26.147Z,56.80
2017-07-22T20:44:53.771Z,56.90
2017-07-22T20:47:21.363Z,57.40
2017-07-22T20:49:48.823Z,57.70
2017-07-22T20:52:16.319Z,57.20
2017-07-22T20:54:43.867Z,56.80
2017-07-22T20:57:11.625Z,56.80
2017-07-22T20:59:39.095Z,56.50
2017-07-22T21:02:06.731Z,56.40
2017-07-22T21:04:34.536Z,56.20
2017-07-22T21:07:02.387Z,56.20
2017-07-22T21:09:31.276Z,56.40
2017-07-22T21:11:58.826Z,56.30
2017-07-22T21:14:26.515Z,55.90
2017-07-22T21:16:54.878Z,56.40
2017-07-22T21:19:22.358Z,56.10
2017-07-22T21:21:50.076Z,56.50
2017-07-22T21:24:17.539Z,57.10
2017-07-22T21:26:45.494Z,57.40
2017-07-22T21:29:13.003Z,57.60
2017-07-22T21:31:42.203Z,59.10
2017-07-22T21:34:10.504Z,58.70
2017-07-22T21:36:38.022Z,58.70
2017-07-22T21:39:05.524Z,58.50
2017-07-22T21:41:33.169Z,58.20
2017-07-22T21:44:01.460Z,58.50
2017-07-22T21:46:29.040Z,58.50
2017-07-22T21:49:01.088Z,58.50
2017-07-22T21:51:28.674Z,58.60
2017-07-22T21:53:56.149Z,58.70
2017-07-22T21:56:23.610Z,58.90
2017-07-22T21:58:51.435Z,59.30
2017-07-22T22:01:19.171Z,60.20
2017-07-22T22:03:47.498Z,60.60
2017-07-22T22:06:15.830Z,60.50
2017-07-22T22:08:43.339Z,60.50
2017-07-22T22:11:11.206Z,60.70
2017-07-22T22:13:38.694Z,61.80
2017-07-22T22:16:06.155Z,62.00
2017-07-22T22:18:34.480Z,62.00
2017-07-22T22:21:02.013Z,61.90
2017-07-22T22:23:29.615Z,62.30
2017-07-22T22:25:57.069Z,62.40
2017-07-22T22:28:24.694Z,62.60
2017-07-22T22:30:52.947Z,63.70
2017-07-22T22:33:21.243Z,64.00
2017-07-22T22:35:48.826Z,63.80
2017-07-22T22:38:16.265Z,65.00
2017-07-22T22:40:44.623Z,65.00
2017-07-22T22:43:12.071Z,65.30
2017-07-22T22:45:39.636Z,65.90
2017-07-22T22:48:07.190Z,66.50
2017-07-22T22:50:35.500Z,69.10
2017-07-22T22:53:02.951Z,68.50
2017-07-22T22:55:30.484Z,69.00
2017-07-22T22:57:57.938Z,69.40
2017-07-22T23:00:25.487Z,69.50
2017-07-22T23:02:52.976Z,69.50
2017-07-22T23:05:20.415Z,69.90
2017-07-22T23:07:47.886Z,69.80
2017-07-22T23:10:15.618Z,70.40
2017-07-22T23:12:43.074Z,71.40
2017-07-22T23:15:10.538Z,72.60
2017-07-22T23:17:38.043Z,74.90
2017-07-22T23:20:06.471Z,75.80
2017-07-22T23:22:33.956Z,76.40
2017-07-22T23:25:03.982Z,79.50
2017-07-22T23:27:31.475Z,79.50
2017-07-22T23:29:58.936Z,78.20
2017-07-22T23:32:27.742Z,76.90
2017-07-22T23:34:55.459Z,78.70
2017-07-22T23:37:23.058Z,78.50
2017-07-22T23:39:50.530Z,79.30
2017-07-22T23:42:17.985Z,80.40
2017-07-22T23:44:45.461Z,80.70
2017-07-22T23:47:13.060Z,80.80
2017-07-22T23:49:40.519Z,82.00
2017-07-22T23:52:08.014Z,83.70
2017-07-22T23:54:35.636Z,82.90
2017-07-22T23:57:03.201Z,82.40
2017-07-22T23:59:30.730Z,83.40
